ENST/SSJ METAR and TAF weather

Enter ICAO airport designator
Station Type Date Time Source
ENST METAR 2018/04/26 19:20 UTC NOAA

ENST 261920Z 18011KT 9999 VCSH FEW008 SCT014 BKN020 05/03 Q0999 RMK WIND 300FT 17011KT


Station Type Date Time Source
ENST Decoded METAR 2018/04/26 19:20 UTC NOAA

Sandnessjoen / Stokka, Norway (ENST) 65-58N 012-28E 17M
Apr 26, 2018 - 03:20 PM EDT / 2018.04.26 1920 UTC
Wind: from the S (180 degrees) at 13 MPH (11 KT):0
Visibility: greater than 7 mile(s):0
Sky conditions: mostly cloudy
Weather: showers in the vicinity
Temperature: 41 F (5 C)
Dew Point: 37 F (3 C)
Relative Humidity: 86%
Pressure (altimeter): 29.50 in. Hg (0999 hPa)
ob: ENST 261920Z 18011KT 9999 VCSH FEW008 SCT014 BKN020 05/03 Q0999 RMK WIND 300FT 17011KT
cycle: 19

Station Type Date Time Source
ENST TAF UTC NOAA

Error!


Example: see airport list